Jasper, Oregon
Current Conditions -  °F | °C
As of 9:54 PM on Monday 20 Oct 2014 (Local Time) from KEUG Reporting Station
Scattered Clouds Scattered Clouds  
Wind Chill: 53°   Ceiling: Unl
Heat Index: 53°   Visibility: 10mi
Dew Point: 50°   Wind: 9mph
Humidity: 89%   Direction: 190°S
Pressure: 29.9"   Gusts: NA
Location:  43.9537°N, 122.621°W
Report Text: KEUG 210454Z 19008KT 10SM SCT060 12/10 A2990 RMK AO2 SLP123 T01170100
Loading
Personal Weather Stations






























Interactive Weather Map
Tropical Storm Tracking
New forecast layout! Learn more

10-Day Weather Forecast

Advertisements
Track Severe Weather on mobile